SPKAR EPZP-EPZP
Flight info
| Callsign | SPKAR |
|---|---|
| Flight time | 0h 5m |
| Altitude | 2000 |
| Route | DCT |
| Aircraft | P208/L-SY/C |
Departure
| Time | 2026-04-19 10:55 |
|---|---|
| Airport | Zielona Góra-Przylep Airfield (EPZP) |
Arrival
| Time | 2026-04-19 11:00 |
|---|---|
| Airport | Zielona Góra-Przylep Airfield (EPZP) |
| Time | Latitude | Longitude | Altitude | Speed | Heading |
|---|---|---|---|---|---|
| 2026-04-19 10:44 | 51.97521 | 15.46441 | 261 ft | 0 kts | 277° |
| 2026-04-19 10:52 | 51.97524 | 15.46413 | 260 ft | 12 kts | 275° |
| 2026-04-19 10:52 | 51.97530 | 15.46185 | 262 ft | 25 kts | 275° |
| 2026-04-19 10:52 | 51.97546 | 15.45929 | 260 ft | 17 kts | 284° |
| 2026-04-19 10:53 | 51.97586 | 15.45831 | 252 ft | 8 kts | 344° |
| 2026-04-19 10:53 | 51.97665 | 15.45803 | 251 ft | 9 kts | 13° |
| 2026-04-19 10:53 | 51.97687 | 15.45842 | 252 ft | 16 kts | 64° |
| 2026-04-19 10:53 | 51.97809 | 15.46184 | 255 ft | 55 kts | 60° |
| 2026-04-19 10:54 | 51.98027 | 15.46796 | 391 ft | 64 kts | 61° |
| 2026-04-19 10:54 | 51.98286 | 15.47433 | 506 ft | 78 kts | 58° |
| 2026-04-19 10:54 | 51.98669 | 15.48087 | 677 ft | 81 kts | 23° |
| 2026-04-19 10:54 | 51.99187 | 15.47866 | 815 ft | 85 kts | 309° |
| 2026-04-19 10:55 | 51.99149 | 15.46964 | 913 ft | 91 kts | 237° |
| 2026-04-19 10:55 | 51.98776 | 15.46001 | 828 ft | 111 kts | 239° |
| 2026-04-19 10:55 | 51.98407 | 15.44866 | 715 ft | 109 kts | 239° |
| 2026-04-19 10:55 | 51.98041 | 15.43953 | 774 ft | 83 kts | 219° |
| 2026-04-19 10:56 | 51.97564 | 15.44120 | 711 ft | 88 kts | 125° |
| 2026-04-19 10:56 | 51.97556 | 15.45137 | 457 ft | 103 kts | 58° |
| 2026-04-19 10:56 | 51.97846 | 15.46040 | 262 ft | 70 kts | 68° |
| 2026-04-19 10:56 | 51.98015 | 15.46664 | 252 ft | 67 kts | 69° |
| 2026-04-19 10:57 | 51.98190 | 15.47300 | 476 ft | 60 kts | 67° |
| 2026-04-19 10:57 | 51.98545 | 15.47742 | 571 ft | 78 kts | 8° |
| 2026-04-19 10:57 | 51.98963 | 15.47174 | 610 ft | 92 kts | 279° |
| 2026-04-19 10:57 | 51.98663 | 15.46215 | 593 ft | 101 kts | 234° |
| 2026-04-19 10:58 | 51.98272 | 15.45213 | 616 ft | 101 kts | 237° |
| 2026-04-19 10:58 | 51.98103 | 15.44637 | 687 ft | 88 kts | 251° |
| 2026-04-19 10:58 | 51.97965 | 15.43819 | 601 ft | 98 kts | 256° |
| 2026-04-19 10:58 | 51.97622 | 15.43171 | 561 ft | 69 kts | 166° |
| 2026-04-19 10:59 | 51.97395 | 15.43826 | 492 ft | 72 kts | 107° |
| 2026-04-19 10:59 | 51.97434 | 15.44656 | 451 ft | 77 kts | 75° |
| 2026-04-19 10:59 | 51.97660 | 15.45462 | 350 ft | 74 kts | 66° |
| 2026-04-19 10:59 | 51.97869 | 15.46085 | 256 ft | 52 kts | 61° |
| 2026-04-19 11:00 | 51.98007 | 15.46603 | 291 ft | 46 kts | 70° |
| 2026-04-19 11:00 | 51.98182 | 15.47081 | 305 ft | 51 kts | 56° |
| 2026-04-19 11:00 | 51.98413 | 15.47456 | 361 ft | 42 kts | 42° |
| 2026-04-19 11:00 | 51.98716 | 15.47727 | 410 ft | 60 kts | 24° |
| 2026-04-19 11:01 | 51.99087 | 15.47450 | 546 ft | 71 kts | 285° |
| 2026-04-19 11:01 | 51.98958 | 15.46644 | 644 ft | 84 kts | 244° |
| 2026-04-19 11:01 | 51.98660 | 15.45638 | 574 ft | 107 kts | 243° |
| 2026-04-19 11:01 | 51.98366 | 15.44526 | 615 ft | 104 kts | 248° |
| 2026-04-19 11:02 | 51.98039 | 15.43563 | 646 ft | 89 kts | 215° |
| 2026-04-19 11:02 | 51.97465 | 15.43464 | 601 ft | 84 kts | 166° |
| 2026-04-19 11:02 | 51.97217 | 15.44177 | 559 ft | 80 kts | 79° |
| 2026-04-19 11:02 | 51.97473 | 15.44905 | 412 ft | 72 kts | 65° |
| 2026-04-19 11:03 | 51.97693 | 15.45619 | 307 ft | 70 kts | 65° |
| 2026-04-19 11:03 | 51.97930 | 15.46277 | 260 ft | 63 kts | 61° |
| 2026-04-19 11:03 | 51.98192 | 15.46901 | 400 ft | 67 kts | 60° |
| 2026-04-19 11:03 | 51.98435 | 15.47505 | 642 ft | 61 kts | 62° |
| 2026-04-19 11:04 | 51.98851 | 15.47710 | 678 ft | 88 kts | 332° |
| 2026-04-19 11:04 | 51.99427 | 15.47186 | 731 ft | 97 kts | 342° |
| 2026-04-19 11:04 | 51.99830 | 15.46468 | 808 ft | 101 kts | 275° |
| 2026-04-19 11:04 | 51.99691 | 15.45298 | 784 ft | 109 kts | 250° |
| 2026-04-19 11:05 | 51.99437 | 15.44151 | 828 ft | 106 kts | 250° |
| 2026-04-19 11:05 | 51.99190 | 15.43045 | 851 ft | 95 kts | 242° |
| 2026-04-19 11:05 | 51.98783 | 15.42482 | 786 ft | 78 kts | 186° |
| 2026-04-19 11:05 | 51.98183 | 15.42665 | 726 ft | 87 kts | 163° |
| 2026-04-19 11:06 | 51.97644 | 15.42896 | 673 ft | 70 kts | 159° |
| 2026-04-19 11:06 | 51.97387 | 15.43401 | 691 ft | 58 kts | 104° |
| 2026-04-19 11:06 | 51.97381 | 15.44140 | 564 ft | 73 kts | 94° |
| 2026-04-19 11:06 | 51.97489 | 15.44946 | 442 ft | 76 kts | 69° |
| 2026-04-19 11:07 | 51.97739 | 15.45700 | 282 ft | 73 kts | 63° |
| 2026-04-19 11:07 | 51.97938 | 15.46339 | 255 ft | 62 kts | 69° |
| 2026-04-19 11:07 | 51.98133 | 15.46953 | 433 ft | 63 kts | 63° |
| 2026-04-19 11:07 | 51.98370 | 15.47554 | 568 ft | 70 kts | 58° |
| 2026-04-19 11:08 | 51.98579 | 15.48031 | 699 ft | 69 kts | 62° |
| 2026-04-19 11:08 | 51.98670 | 15.48854 | 801 ft | 83 kts | 100° |
| 2026-04-19 11:08 | 51.98455 | 15.49755 | 920 ft | 86 kts | 121° |
| 2026-04-19 11:08 | 51.98041 | 15.50453 | 1025 ft | 89 kts | 140° |
| 2026-04-19 11:09 | 51.97600 | 15.51117 | 1227 ft | 83 kts | 134° |
| 2026-04-19 11:09 | 51.97221 | 15.51710 | 1508 ft | 73 kts | 137° |
| 2026-04-19 11:09 | 51.96817 | 15.52342 | 1565 ft | 91 kts | 135° |
| 2026-04-19 11:09 | 51.96335 | 15.53128 | 1514 ft | 104 kts | 137° |
| 2026-04-19 11:10 | 51.95773 | 15.53887 | 1517 ft | 105 kts | 143° |
| 2026-04-19 11:10 | 51.95169 | 15.54519 | 1550 ft | 103 kts | 150° |
| 2026-04-19 11:10 | 51.94518 | 15.55029 | 1553 ft | 104 kts | 158° |
| 2026-04-19 11:10 | 51.93844 | 15.55373 | 1481 ft | 103 kts | 166° |
| 2026-04-19 11:11 | 51.93130 | 15.55571 | 1382 ft | 102 kts | 173° |
| 2026-04-19 11:11 | 51.92664 | 15.55626 | 1325 ft | 102 kts | 178° |
| 2026-04-19 11:11 | 51.91937 | 15.55590 | 1165 ft | 106 kts | 184° |
| 2026-04-19 11:11 | 51.91221 | 15.55426 | 1095 ft | 102 kts | 192° |
| 2026-04-19 11:12 | 51.90468 | 15.55111 | 1359 ft | 59 kts | 211° |
| 2026-04-19 11:12 | 51.90237 | 15.54816 | 1453 ft | 65 kts | 219° |
| 2026-04-19 11:12 | 51.89774 | 15.54143 | 1756 ft | 58 kts | 219° |
| 2026-04-19 11:12 | 51.89371 | 15.53633 | 1735 ft | 92 kts | 215° |
| 2026-04-19 11:13 | 51.88903 | 15.52870 | 1820 ft | 95 kts | 244° |
| 2026-04-19 11:13 | 51.88811 | 15.52161 | 1856 ft | 102 kts | 266° |
| 2026-04-19 11:13 | 51.88915 | 15.51012 | 1917 ft | 102 kts | 289° |
| 2026-04-19 11:13 | 51.89262 | 15.49966 | 1873 ft | 111 kts | 305° |
| 2026-04-19 11:14 | 51.89798 | 15.49063 | 1863 ft | 112 kts | 327° |
| 2026-04-19 11:14 | 51.90419 | 15.48533 | 1788 ft | 98 kts | 337° |
| 2026-04-19 11:14 | 51.91047 | 15.48153 | 1743 ft | 98 kts | 346° |
| 2026-04-19 11:14 | 51.91664 | 15.47935 | 2005 ft | 85 kts | 350° |
| 2026-04-19 11:15 | 51.92349 | 15.47724 | 1844 ft | 113 kts | 351° |
| 2026-04-19 11:15 | 51.93095 | 15.47561 | 1897 ft | 105 kts | 355° |
| 2026-04-19 11:15 | 51.93813 | 15.47312 | 1901 ft | 108 kts | 336° |
| 2026-04-19 11:15 | 51.94355 | 15.46496 | 1831 ft | 111 kts | 297° |
| 2026-04-19 11:16 | 51.94698 | 15.45361 | 1601 ft | 108 kts | 317° |
| 2026-04-19 11:16 | 51.95349 | 15.45219 | 1512 ft | 82 kts | 11° |
| 2026-04-19 11:16 | 51.95909 | 15.45036 | 1516 ft | 103 kts | 348° |
| 2026-04-19 11:16 | 51.96711 | 15.44579 | 964 ft | 118 kts | 327° |
| 2026-04-19 11:17 | 51.97365 | 15.44522 | 690 ft | 108 kts | 47° |
| 2026-04-19 11:17 | 51.97677 | 15.45479 | 379 ft | 100 kts | 54° |
| 2026-04-19 11:17 | 51.97927 | 15.46279 | 273 ft | 59 kts | 84° |
| 2026-04-19 11:17 | 51.97900 | 15.46829 | 301 ft | 49 kts | 91° |
| 2026-04-19 11:18 | 51.98116 | 15.47253 | 443 ft | 50 kts | 38° |
| 2026-04-19 11:18 | 51.98325 | 15.47755 | 600 ft | 58 kts | 69° |
| 2026-04-19 11:18 | 51.98363 | 15.48410 | 806 ft | 57 kts | 98° |
| 2026-04-19 11:18 | 51.98314 | 15.49024 | 1035 ft | 56 kts | 102° |
| 2026-04-19 11:19 | 51.98172 | 15.49634 | 1215 ft | 59 kts | 124° |
| 2026-04-19 11:19 | 51.97831 | 15.50338 | 1232 ft | 92 kts | 130° |
| 2026-04-19 11:19 | 51.97489 | 15.51238 | 1311 ft | 101 kts | 114° |
| 2026-04-19 11:19 | 51.97053 | 15.52150 | 1269 ft | 105 kts | 142° |
| 2026-04-19 11:20 | 51.96481 | 15.52867 | 1327 ft | 99 kts | 140° |
| 2026-04-19 11:20 | 51.96026 | 15.53638 | 1529 ft | 93 kts | 136° |
| 2026-04-19 11:20 | 51.95542 | 15.54348 | 1660 ft | 97 kts | 140° |
| 2026-04-19 11:20 | 51.94975 | 15.55000 | 1680 ft | 99 kts | 147° |
| 2026-04-19 11:21 | 51.94359 | 15.55546 | 1606 ft | 97 kts | 155° |
| 2026-04-19 11:21 | 51.93707 | 15.55703 | 1819 ft | 90 kts | 189° |
| 2026-04-19 11:21 | 51.93085 | 15.55159 | 1631 ft | 118 kts | 212° |
| 2026-04-19 11:22 | 51.91781 | 15.54332 | 1763 ft | 88 kts | 239° |
| 2026-04-19 11:22 | 51.91652 | 15.53203 | 1611 ft | 107 kts | 245° |
| 2026-04-19 11:22 | 51.91285 | 15.52251 | 1658 ft | 107 kts | 245° |
| 2026-04-19 11:22 | 51.91134 | 15.51101 | 1771 ft | 108 kts | 276° |
| 2026-04-19 11:23 | 51.91403 | 15.49925 | 1769 ft | 112 kts | 279° |
| 2026-04-19 11:23 | 51.91778 | 15.48857 | 1685 ft | 118 kts | 312° |
| 2026-04-19 11:23 | 51.92296 | 15.47857 | 1667 ft | 115 kts | 309° |
| 2026-04-19 11:23 | 51.92804 | 15.46878 | 1638 ft | 112 kts | 318° |
| 2026-04-19 11:24 | 51.93476 | 15.46346 | 1621 ft | 112 kts | 354° |
| 2026-04-19 11:24 | 51.94231 | 15.46279 | 1516 ft | 101 kts | 4° |
| 2026-04-19 11:24 | 51.94910 | 15.46417 | 1475 ft | 96 kts | 14° |
| 2026-04-19 11:24 | 51.95580 | 15.46766 | 1329 ft | 109 kts | 23° |
| 2026-04-19 11:25 | 51.96240 | 15.47246 | 1260 ft | 103 kts | 30° |
| 2026-04-19 11:25 | 51.96772 | 15.47832 | 1374 ft | 77 kts | 47° |
| 2026-04-19 11:25 | 51.97195 | 15.48309 | 1357 ft | 83 kts | 19° |
| 2026-04-19 11:25 | 51.97864 | 15.48414 | 1276 ft | 108 kts | 2° |
| 2026-04-19 11:26 | 51.98616 | 15.48219 | 1354 ft | 115 kts | 340° |
| 2026-04-19 11:26 | 51.99240 | 15.47342 | 1172 ft | 129 kts | 313° |
| 2026-04-19 11:26 | 51.99432 | 15.46061 | 908 ft | 124 kts | 235° |
| 2026-04-19 11:26 | 51.98973 | 15.44983 | 925 ft | 110 kts | 238° |
| 2026-04-19 11:27 | 51.98542 | 15.44032 | 1028 ft | 100 kts | 229° |
| 2026-04-19 11:27 | 51.98009 | 15.43368 | 1027 ft | 99 kts | 174° |
| 2026-04-19 11:27 | 51.97552 | 15.44204 | 1049 ft | 94 kts | 128° |
| 2026-04-19 11:27 | 51.97515 | 15.45063 | 1229 ft | 93 kts | 63° |
| 2026-04-19 11:28 | 51.97889 | 15.45972 | 1351 ft | 101 kts | 55° |
| 2026-04-19 11:28 | 51.98240 | 15.46894 | 1648 ft | 62 kts | 94° |
| 2026-04-19 11:28 | 51.98329 | 15.46561 | 1257 ft | 83 kts | 345° |
| 2026-04-19 11:28 | 51.98866 | 15.47022 | 1233 ft | 95 kts | 12° |
| 2026-04-19 11:29 | 51.99539 | 15.46670 | 1190 ft | 109 kts | 316° |
| 2026-04-19 11:29 | 51.99474 | 15.45606 | 1206 ft | 111 kts | 212° |
| 2026-04-19 11:29 | 51.98754 | 15.45096 | 1144 ft | 106 kts | 214° |
| 2026-04-19 11:29 | 51.98472 | 15.43934 | 1017 ft | 107 kts | 264° |
| 2026-04-19 11:30 | 51.98376 | 15.42850 | 992 ft | 91 kts | 231° |
| 2026-04-19 11:30 | 51.97951 | 15.43091 | 758 ft | 78 kts | 130° |
| 2026-04-19 11:30 | 51.97575 | 15.43606 | 761 ft | 64 kts | 141° |
| 2026-04-19 11:30 | 51.97331 | 15.44320 | 665 ft | 74 kts | 102° |
| 2026-04-19 11:31 | 51.97503 | 15.45148 | 434 ft | 77 kts | 62° |
| 2026-04-19 11:31 | 51.97709 | 15.45857 | 257 ft | 61 kts | 70° |
| 2026-04-19 11:31 | 51.97856 | 15.46337 | 250 ft | 27 kts | 60° |
| 2026-04-19 11:31 | 51.97852 | 15.46482 | 251 ft | 0 kts | 210° |
| 2026-04-19 11:32 | 51.97803 | 15.46338 | 253 ft | 33 kts | 238° |
| 2026-04-19 11:32 | 51.97663 | 15.46212 | 252 ft | 17 kts | 167° |
| 2026-04-19 11:32 | 51.97598 | 15.46248 | 258 ft | 9 kts | 145° |
| 2026-04-19 11:32 | 51.97571 | 15.46291 | 258 ft | 4 kts | 137° |
| 2026-04-19 11:33 | 51.97548 | 15.46327 | 258 ft | 2 kts | 120° |
| 2026-04-19 11:33 | 51.97520 | 15.46415 | 258 ft | 3 kts | 122° |
| 2026-04-19 11:33 | 51.97510 | 15.46433 | 258 ft | 0 kts | 137° |
| 2026-04-19 11:33 | 51.97509 | 15.46434 | 258 ft | 0 kts | 174° |
| 2026-04-19 11:34 | 51.97509 | 15.46431 | 258 ft | 0 kts | 305° |